ニアメ の空港の天気 - METARとTAF

ニアメ/ディオリ・アマニ国際空港 ( DRRN / NIM ) - ニジェール ニアメ
飛行場実況気象(Metar)
観測時間04/26 12:00 WAT (04/26 11:00 UTC)
風向・風速西南西 5m/s
視程10km以上
天気現象
なし
気温38℃
湿度21%
気圧1009hPa
METARDRRN 261100Z 24009KT 210V280 CAVOK 38/12 Q1009 NOSIG
過去の天気等 Google飛行場航空写真 Wunderground天気予報

過去48時間のMETAR

飛行場予報(TAF)
発表時間: 4/26 06:00 WAT (4/26 05:00 UTC)
予報対象時間: 26日7時 WAT ~ 27日13時 WAT
風向・風速西南西 7m/s
視程8,000m
なし
26日7時 WAT ~ 26日11時 WAT に一時的に
視程4,000m
天気現象風塵
26日16時 WAT ~ 26日22時 WAT に 確率 40% で一時的に
風向・風速不定 13m/s
視程1,200m
天気現象高い風塵 雷雨
全天の4割程度の雲 雲底高度 910m
少しの積乱雲 雲底高度 1,220m
TAF DRRN 260500Z 2606/2712 25014KT 8000 NSC
TEMPO 2606/2610 4000 DU
PROB40 TEMPO 2615/2621 VRB025KT 1200 BLDU TSRA SCT030 FEW040CB